createdAt,value
2018-03-16T00:00:44.986Z,96176.63
2018-03-16T00:03:13.283Z,96184.47
2018-03-16T00:05:42.222Z,96183.80
2018-03-16T00:08:10.534Z,96186.31
2018-03-16T00:10:38.839Z,96190.95
2018-03-16T00:13:07.137Z,96180.63
2018-03-16T00:15:35.455Z,96186.97
2018-03-16T00:18:03.793Z,96189.22
2018-03-16T00:20:32.098Z,96190.30
2018-03-16T00:23:00.384Z,96181.94
2018-03-16T00:25:28.682Z,96191.34
2018-03-16T00:27:56.978Z,96190.82
2018-03-16T00:30:25.264Z,96194.25
2018-03-16T00:32:53.570Z,96189.91
2018-03-16T00:35:21.886Z,96191.47
2018-03-16T00:37:50.194Z,96192.69
2018-03-16T00:40:18.470Z,96193.06
2018-03-16T00:42:46.761Z,96195.73
2018-03-16T00:45:15.070Z,96190.95
2018-03-16T00:47:43.376Z,96190.69
2018-03-16T00:50:12.462Z,96188.83
2018-03-16T00:52:40.771Z,96191.61
2018-03-16T00:55:09.058Z,96192.27
2018-03-16T00:57:37.366Z,96195.17
2018-03-16T01:00:05.649Z,96198.09
2018-03-16T01:02:33.954Z,96202.88
2018-03-16T01:05:02.267Z,96213.06
2018-03-16T01:07:30.577Z,96208.95
2018-03-16T01:09:59.629Z,96220.98
2018-03-16T01:12:27.929Z,96216.09
2018-03-16T01:14:56.218Z,96214.37
2018-03-16T01:17:24.524Z,96222.55
2018-03-16T01:19:53.578Z,96221.65
2018-03-16T01:22:21.889Z,96230.63
2018-03-16T01:24:50.173Z,96222.42
2018-03-16T01:27:18.490Z,96218.58
2018-03-16T01:29:46.784Z,96218.16
2018-03-16T01:32:15.855Z,96220.09
2018-03-16T01:34:44.157Z,96213.80
2018-03-16T01:37:12.458Z,96215.27
2018-03-16T01:39:40.768Z,96215.03
2018-03-16T01:42:09.872Z,96217.09
2018-03-16T01:44:39.672Z,96228.26
2018-03-16T01:47:07.962Z,96228.47
2018-03-16T01:49:36.262Z,96225.11
2018-03-16T01:52:04.551Z,96220.67
2018-03-16T01:54:32.880Z,96229.27
2018-03-16T01:57:01.174Z,96227.98
2018-03-16T01:59:29.469Z,96224.67
2018-03-16T02:01:57.772Z,96234.04
2018-03-16T02:04:26.090Z,96237.35
2018-03-16T02:06:54.374Z,96233.47
2018-03-16T02:09:22.669Z,96239.63
2018-03-16T02:11:50.966Z,96234.08
2018-03-16T02:14:19.270Z,96241.89
2018-03-16T02:16:48.318Z,96237.89
2018-03-16T02:19:16.627Z,96239.47
2018-03-16T02:21:44.938Z,96237.37
2018-03-16T02:24:13.233Z,96235.69
2018-03-16T02:26:42.299Z,96241.50
2018-03-16T02:29:10.597Z,96237.77
2018-03-16T02:31:38.879Z,96232.94
2018-03-16T02:34:07.186Z,96239.52
2018-03-16T02:36:35.508Z,96242.81
2018-03-16T02:39:05.315Z,96237.56
2018-03-16T02:41:33.669Z,96242.09
2018-03-16T02:44:03.131Z,96232.84
2018-03-16T02:46:31.508Z,96232.31
2018-03-16T02:48:59.839Z,96233.00
2018-03-16T02:51:28.126Z,96234.69
2018-03-16T02:53:56.442Z,96231.44
2018-03-16T02:56:25.501Z,96226.27
2018-03-16T02:58:54.959Z,96231.28
2018-03-16T03:01:23.260Z,96225.75
2018-03-16T03:03:51.562Z,96224.75
2018-03-16T03:06:19.873Z,96232.12
2018-03-16T03:08:48.183Z,96233.00
2018-03-16T03:11:17.628Z,96233.61
2018-03-16T03:13:45.929Z,96228.91
2018-03-16T03:16:14.228Z,96235.75
2018-03-16T03:18:42.505Z,96236.68
2018-03-16T03:21:10.802Z,96236.56
2018-03-16T03:23:39.077Z,96240.12
2018-03-16T03:26:07.395Z,96244.29
2018-03-16T03:28:35.677Z,96248.17
2018-03-16T03:31:04.033Z,96246.69
2018-03-16T03:33:32.351Z,96255.17
2018-03-16T03:36:00.651Z,96253.48
2018-03-16T03:38:28.933Z,96259.27
2018-03-16T03:40:57.225Z,96259.14
2018-03-16T03:43:25.510Z,96253.58
2018-03-16T03:45:53.819Z,96257.87
2018-03-16T03:48:22.117Z,96258.86
2018-03-16T03:50:50.413Z,96258.57
2018-03-16T03:53:18.702Z,96262.52
2018-03-16T03:55:47.006Z,96265.50
2018-03-16T03:58:16.062Z,96263.78
2018-03-16T04:00:44.366Z,96263.02
2018-03-16T04:03:12.666Z,96254.24
2018-03-16T04:05:41.185Z,96254.48
2018-03-16T04:08:10.528Z,96250.28
2018-03-16T04:10:39.589Z,96254.38
2018-03-16T04:13:07.876Z,96249.61
2018-03-16T04:15:36.186Z,96247.58
2018-03-16T04:18:04.481Z,96241.38
2018-03-16T04:20:32.782Z,96244.94
2018-03-16T04:23:01.078Z,96251.33
2018-03-16T04:25:29.398Z,96255.59
2018-03-16T04:27:58.450Z,96263.38
2018-03-16T04:30:27.528Z,96257.14
2018-03-16T04:32:55.818Z,96259.58
2018-03-16T04:35:24.122Z,96261.74
2018-03-16T04:37:52.418Z,96265.19
2018-03-16T04:40:20.737Z,96269.23
2018-03-16T04:42:49.042Z,96268.83
2018-03-16T04:45:17.331Z,96269.03
2018-03-16T04:47:45.630Z,96266.50
2018-03-16T04:50:14.682Z,96270.86
2018-03-16T04:52:42.982Z,96268.62
2018-03-16T04:55:11.262Z,96272.10
2018-03-16T04:57:39.561Z,96270.02
2018-03-16T05:00:07.920Z,96276.72
2018-03-16T05:02:36.245Z,96268.75
2018-03-16T05:05:04.547Z,96269.55
2018-03-16T05:07:32.843Z,96275.27
2018-03-16T05:10:01.121Z,96264.38
2018-03-16T05:12:29.439Z,96274.87
2018-03-16T05:14:58.491Z,96271.67
2018-03-16T05:17:27.564Z,96272.38
2018-03-16T05:19:56.722Z,96280.36
2018-03-16T05:22:25.026Z,96276.84
2018-03-16T05:24:53.313Z,96272.03
2018-03-16T05:27:21.610Z,96272.31
2018-03-16T05:29:49.900Z,96274.23
2018-03-16T05:32:18.219Z,96275.84
2018-03-16T05:34:47.282Z,96277.68
2018-03-16T05:37:15.594Z,96272.83
2018-03-16T05:39:43.895Z,96273.78
2018-03-16T05:42:12.963Z,96276.59
2018-03-16T05:44:41.273Z,96278.86
2018-03-16T05:47:09.575Z,96279.11
2018-03-16T05:49:37.857Z,96277.66
2018-03-16T05:52:06.317Z,96270.56
2018-03-16T05:54:34.679Z,96275.17
2018-03-16T05:57:04.021Z,96267.11
2018-03-16T05:59:32.339Z,96269.79
2018-03-16T06:02:00.781Z,96273.78
2018-03-16T06:04:29.116Z,96275.80
2018-03-16T06:06:57.436Z,96275.33
2018-03-16T06:09:26.834Z,96286.75
2018-03-16T06:11:55.243Z,96289.30
2018-03-16T06:14:24.841Z,96295.66
2018-03-16T06:16:53.387Z,96300.84
2018-03-16T06:19:22.124Z,96301.38
2018-03-16T06:21:50.670Z,96303.66
2018-03-16T06:24:19.318Z,96312.77
2018-03-16T06:26:47.751Z,96315.80
2018-03-16T06:29:16.953Z,96313.71
2018-03-16T06:31:46.170Z,96311.62
2018-03-16T06:34:15.330Z,96320.06
2018-03-16T06:36:44.849Z,96319.80
2018-03-16T06:39:13.383Z,96321.00
2018-03-16T06:41:42.559Z,96322.73
2018-03-16T06:44:11.658Z,96321.95
2018-03-16T06:46:40.176Z,96326.83
2018-03-16T06:49:08.566Z,96327.11
2018-03-16T06:51:37.443Z,96327.78
2018-03-16T06:54:05.813Z,96326.84
2018-03-16T06:56:34.140Z,96335.46
2018-03-16T06:59:02.567Z,96335.61
2018-03-16T07:01:31.174Z,96338.69
2018-03-16T07:04:00.411Z,96340.77
2018-03-16T07:06:28.709Z,96341.70
2018-03-16T07:08:57.046Z,96355.46
2018-03-16T07:11:25.380Z,96355.48
2018-03-16T07:13:54.415Z,96356.53
2018-03-16T07:16:22.723Z,96355.48
2018-03-16T07:18:51.032Z,96351.54
2018-03-16T07:21:21.055Z,96362.92
2018-03-16T07:23:49.404Z,96354.82
2018-03-16T07:26:17.735Z,96365.27
2018-03-16T07:28:46.821Z,96374.58
2018-03-16T07:31:16.627Z,96370.34
2018-03-16T07:33:44.957Z,96371.23
2018-03-16T07:36:13.254Z,96383.72
2018-03-16T07:38:42.432Z,96385.83
2018-03-16T07:41:11.977Z,96390.62
2018-03-16T07:43:40.264Z,96387.97
2018-03-16T07:46:14.697Z,96388.91
2018-03-16T07:48:42.981Z,96391.28
2018-03-16T07:51:12.071Z,96391.28
2018-03-16T07:53:40.370Z,96401.23
2018-03-16T07:56:08.699Z,96397.66
2018-03-16T07:58:38.495Z,96409.59
2018-03-16T08:01:06.834Z,96406.76
2018-03-16T08:03:35.149Z,96407.69
2018-03-16T08:06:05.388Z,96408.91
2018-03-16T08:08:33.675Z,96409.02
2018-03-16T08:11:01.989Z,96415.00
2018-03-16T08:13:30.283Z,96410.19
2018-03-16T08:15:58.632Z,96413.44
2018-03-16T08:18:26.922Z,96416.74
2018-03-16T08:20:55.256Z,96413.78
2018-03-16T08:23:23.558Z,96412.79
2018-03-16T08:25:51.874Z,96414.19
2018-03-16T08:28:20.180Z,96414.64
2018-03-16T08:30:48.514Z,96421.00
2018-03-16T08:33:16.877Z,96420.21
2018-03-16T08:35:45.990Z,96414.03
2018-03-16T08:38:14.284Z,96420.48
2018-03-16T08:40:42.618Z,96413.61
2018-03-16T08:43:10.953Z,96415.47
2018-03-16T08:45:40.078Z,96405.64
2018-03-16T08:48:08.347Z,96408.73
2018-03-16T08:50:36.766Z,96410.95
2018-03-16T08:53:05.923Z,96415.45
2018-03-16T08:55:34.241Z,96411.57
2018-03-16T08:58:02.612Z,96410.41
2018-03-16T09:00:30.930Z,96414.00
2018-03-16T09:02:59.244Z,96419.34
2018-03-16T09:05:27.576Z,96418.02
2018-03-16T09:07:55.905Z,96423.22
2018-03-16T09:10:24.211Z,96419.79
2018-03-16T09:12:52.523Z,96421.84
2018-03-16T09:15:22.206Z,96425.00
2018-03-16T09:17:50.515Z,96419.74
2018-03-16T09:20:18.863Z,96422.59
2018-03-16T09:22:47.195Z,96424.14
2018-03-16T09:25:15.501Z,96432.23
2018-03-16T09:27:44.955Z,96428.44
2018-03-16T09:30:13.267Z,96434.55
2018-03-16T09:32:41.589Z,96437.06
2018-03-16T09:35:10.650Z,96430.88
2018-03-16T09:37:39.913Z,96431.16
2018-03-16T09:40:09.002Z,96433.83
2018-03-16T09:42:37.314Z,96436.53
2018-03-16T09:45:06.383Z,96430.03
2018-03-16T09:47:34.698Z,96437.73
2018-03-16T09:50:03.767Z,96438.36
2018-03-16T09:52:32.100Z,96432.00
2018-03-16T09:55:18.758Z,96430.31
2018-03-16T09:57:47.087Z,96434.66
2018-03-16T10:00:15.403Z,96431.98
2018-03-16T10:02:44.493Z,96429.34
2018-03-16T10:05:12.791Z,96428.98
2018-03-16T10:07:41.107Z,96427.24
2018-03-16T10:10:09.414Z,96436.84
2018-03-16T10:12:37.709Z,96441.79
2018-03-16T10:15:06.038Z,96447.75
2018-03-16T10:17:34.362Z,96442.56
2018-03-16T10:20:03.426Z,96435.77
2018-03-16T10:22:31.775Z,96442.34
2018-03-16T10:25:00.078Z,96438.76
2018-03-16T10:27:28.399Z,96435.18
2018-03-16T10:29:57.498Z,96444.23
2018-03-16T10:32:25.837Z,96441.70
2018-03-16T10:34:54.900Z,96440.27
2018-03-16T10:37:23.213Z,96438.49
2018-03-16T10:39:51.521Z,96441.14
2018-03-16T10:42:20.692Z,96447.90
2018-03-16T10:44:48.997Z,96440.95
2018-03-16T10:47:18.115Z,96444.30
2018-03-16T10:49:46.438Z,96444.38
2018-03-16T10:52:15.039Z,96446.73
2018-03-16T10:54:43.604Z,96446.03
2018-03-16T10:57:12.726Z,96451.83
2018-03-16T10:59:41.997Z,96452.23
2018-03-16T11:02:15.906Z,96448.95
2018-03-16T11:04:45.685Z,96454.47
2018-03-16T11:07:18.468Z,96452.52
2018-03-16T11:09:47.892Z,96445.17
2018-03-16T11:12:18.592Z,96448.30
2018-03-16T11:14:47.086Z,96454.06
2018-03-16T11:17:15.882Z,96448.49
2018-03-16T11:19:48.686Z,96463.70
2018-03-16T11:22:17.145Z,96460.34
2018-03-16T11:24:45.562Z,96456.34
2018-03-16T11:27:14.004Z,96459.09
2018-03-16T11:29:43.218Z,96465.46
2018-03-16T11:32:11.614Z,96465.83
2018-03-16T11:34:40.100Z,96459.14
2018-03-16T11:37:09.229Z,96460.50
2018-03-16T11:39:38.528Z,96465.55
2018-03-16T11:44:41.723Z,96459.64
2018-03-16T11:47:10.131Z,96467.77
2018-03-16T11:49:38.582Z,96456.59
2018-03-16T11:52:06.998Z,96470.94
2018-03-16T11:54:35.782Z,96463.79
2018-03-16T11:57:04.150Z,96466.91
2018-03-16T11:59:32.489Z,96475.55
2018-03-16T12:02:00.888Z,96481.63
2018-03-16T12:04:29.481Z,96469.78
2018-03-16T12:06:58.232Z,96483.17
2018-03-16T12:09:26.783Z,96485.09
2018-03-16T12:11:55.913Z,96482.87
2018-03-16T12:14:25.596Z,96468.82
2018-03-16T12:16:54.280Z,96476.38
2018-03-16T12:19:23.396Z,96468.00
2018-03-16T12:21:52.124Z,96476.72
2018-03-16T12:24:20.483Z,96468.12
2018-03-16T12:26:48.990Z,96476.24
2018-03-16T12:29:17.768Z,96473.17
2018-03-16T12:31:46.198Z,96473.50
2018-03-16T12:34:16.064Z,96464.80
2018-03-16T12:36:44.488Z,96467.67
2018-03-16T12:39:13.148Z,96466.66
2018-03-16T12:41:43.085Z,96459.69
2018-03-16T12:44:11.665Z,96461.02
2018-03-16T12:46:40.314Z,96459.05
2018-03-16T12:49:08.824Z,96452.78
2018-03-16T12:51:42.191Z,96448.78
2018-03-16T12:54:06.094Z,96448.16
2018-03-16T12:56:36.199Z,96448.42
2018-03-16T12:59:04.824Z,96448.14
2018-03-16T13:01:33.286Z,96439.34
2018-03-16T13:04:01.915Z,96437.67
2018-03-16T13:06:30.322Z,96433.73
2018-03-16T13:08:58.641Z,96430.04
2018-03-16T13:11:27.827Z,96427.59
2018-03-16T13:13:56.245Z,96420.70
2018-03-16T13:16:25.435Z,96423.48
2018-03-16T13:21:27.530Z,96419.03
2018-03-16T13:23:56.164Z,96426.01
2018-03-16T13:26:25.426Z,96422.89
2018-03-16T13:28:53.754Z,96436.94
2018-03-16T13:31:23.522Z,96424.50
2018-03-16T13:33:51.979Z,96425.20
2018-03-16T13:36:21.532Z,96423.62
2018-03-16T13:38:50.037Z,96422.92
2018-03-16T13:41:18.553Z,96425.64
2018-03-16T13:43:47.258Z,96428.61
2018-03-16T13:46:15.804Z,96429.03
2018-03-16T13:48:44.412Z,96423.77
2018-03-16T13:51:13.096Z,96428.19
2018-03-16T13:53:41.532Z,96423.84
2018-03-16T13:56:11.217Z,96423.68
2018-03-16T13:58:40.053Z,96421.84
2018-03-16T14:01:08.406Z,96418.28
2018-03-16T14:03:37.135Z,96426.01
2018-03-16T14:06:05.648Z,96424.53
2018-03-16T14:08:34.070Z,96420.71
2018-03-16T14:11:03.963Z,96424.05
2018-03-16T14:13:32.337Z,96426.22
2018-03-16T14:16:00.947Z,96420.64
2018-03-16T14:18:29.573Z,96424.63
2018-03-16T14:20:59.554Z,96420.27
2018-03-16T14:23:28.843Z,96417.09
2018-03-16T14:25:58.018Z,96415.11
2018-03-16T14:28:26.894Z,96424.38
2018-03-16T14:30:55.583Z,96423.67
2018-03-16T14:33:24.550Z,96427.28
2018-03-16T14:35:54.475Z,96431.84
2018-03-16T14:38:24.042Z,96424.20
2018-03-16T14:40:52.600Z,96431.59
2018-03-16T14:43:21.088Z,96426.75
2018-03-16T14:45:50.426Z,96430.59
2018-03-16T14:48:18.738Z,96424.71
2018-03-16T14:50:47.029Z,96423.53
2018-03-16T14:53:15.347Z,96430.30
2018-03-16T14:55:44.420Z,96432.98
2018-03-16T14:58:12.742Z,96426.74
2018-03-16T15:00:41.056Z,96414.57
2018-03-16T15:03:09.371Z,96411.70
2018-03-16T15:05:37.675Z,96410.41
2018-03-16T15:08:06.767Z,96413.23
2018-03-16T15:10:35.072Z,96407.20
2018-03-16T15:13:04.188Z,96407.09
2018-03-16T15:15:32.483Z,96411.80
2018-03-16T15:18:00.805Z,96415.20
2018-03-16T15:20:29.907Z,96407.26
2018-03-16T15:22:59.982Z,96406.03
2018-03-16T15:25:28.327Z,96399.05
2018-03-16T15:27:56.615Z,96396.34
2018-03-16T15:30:24.873Z,96397.56
2018-03-16T15:32:53.361Z,96395.77
2018-03-16T15:35:21.888Z,96393.78
2018-03-16T15:37:51.202Z,96390.02
2018-03-16T15:40:19.823Z,96387.36
2018-03-16T15:42:48.305Z,96390.80
2018-03-16T15:45:17.400Z,96384.53
2018-03-16T15:47:45.649Z,96382.50
2018-03-16T15:52:38.217Z,96383.62
2018-03-16T15:55:06.502Z,96388.53
2018-03-16T15:57:34.765Z,96389.06
2018-03-16T16:00:03.850Z,96386.59
2018-03-16T16:02:32.154Z,96379.72
2018-03-16T16:05:00.478Z,96382.19
2018-03-16T16:07:28.836Z,96383.19
2018-03-16T16:09:57.275Z,96376.71
2018-03-16T16:12:25.867Z,96383.23
2018-03-16T16:14:54.673Z,96377.62
2018-03-16T16:17:22.990Z,96376.55
2018-03-16T16:19:51.296Z,96373.81
2018-03-16T16:22:19.573Z,96381.77
2018-03-16T16:24:47.852Z,96381.36
2018-03-16T16:27:16.502Z,96390.18
2018-03-16T16:29:45.009Z,96375.50
2018-03-16T16:32:15.357Z,96381.42
2018-03-16T16:34:43.777Z,96381.16
2018-03-16T16:37:12.182Z,96376.69
2018-03-16T16:39:40.585Z,96376.81
2018-03-16T16:42:09.855Z,96369.91
2018-03-16T16:44:39.801Z,96382.05
2018-03-16T16:47:08.464Z,96381.05
2018-03-16T16:49:37.149Z,96379.20
2018-03-16T16:52:05.550Z,96381.45
2018-03-16T16:54:34.101Z,96386.70
2018-03-16T16:57:02.588Z,96386.81
2018-03-16T16:59:30.925Z,96388.42
2018-03-16T17:02:00.557Z,96391.16
2018-03-16T17:04:29.327Z,96394.64
2018-03-16T17:06:58.586Z,96397.86
2018-03-16T17:09:27.258Z,96399.47
2018-03-16T17:11:55.929Z,96399.27
2018-03-16T17:14:25.293Z,96410.58
2018-03-16T17:16:53.766Z,96410.44
2018-03-16T17:19:22.547Z,96412.70
2018-03-16T17:21:52.097Z,96417.36
2018-03-16T17:24:21.449Z,96422.61
2018-03-16T17:26:50.221Z,96422.86
2018-03-16T17:29:18.730Z,96423.28
2018-03-16T17:31:47.145Z,96430.62
2018-03-16T17:34:15.692Z,96425.68
2018-03-16T17:36:44.225Z,96431.84
2018-03-16T17:39:12.720Z,96435.25
2018-03-16T17:41:41.476Z,96438.73
2018-03-16T17:44:09.889Z,96448.02
2018-03-16T17:46:38.434Z,96442.23
2018-03-16T17:49:07.511Z,96452.36
2018-03-16T17:51:36.744Z,96452.26
2018-03-16T17:54:06.040Z,96450.95
2018-03-16T17:56:35.900Z,96454.41
2018-03-16T17:59:05.356Z,96451.38
2018-03-16T18:01:33.991Z,96455.23
2018-03-16T18:04:02.490Z,96452.29
2018-03-16T18:06:31.213Z,96457.19
2018-03-16T18:09:01.102Z,96456.53
2018-03-16T18:11:29.781Z,96450.69
2018-03-16T18:13:58.665Z,96450.56
2018-03-16T18:16:27.411Z,96453.52
2018-03-16T18:18:57.231Z,96456.05
2018-03-16T18:21:26.478Z,96461.73
2018-03-16T18:23:55.183Z,96464.09
2018-03-16T18:26:24.619Z,96456.43
2018-03-16T18:28:53.147Z,96464.08
2018-03-16T18:31:21.493Z,96465.66
2018-03-16T18:33:50.581Z,96469.20
2018-03-16T18:36:19.726Z,96477.16
2018-03-16T18:38:48.657Z,96479.78
2018-03-16T18:41:17.130Z,96475.95
2018-03-16T18:43:45.933Z,96481.25
2018-03-16T18:46:14.965Z,96468.98
2018-03-16T18:48:43.738Z,96469.77
2018-03-16T18:51:12.233Z,96470.20
2018-03-16T18:53:40.656Z,96468.83
2018-03-16T18:56:09.206Z,96481.95
2018-03-16T18:58:37.879Z,96472.50
2018-03-16T19:01:07.058Z,96477.58
2018-03-16T19:03:35.863Z,96475.73
2018-03-16T19:06:04.188Z,96478.23
2018-03-16T19:08:33.476Z,96473.76
2018-03-16T19:11:01.750Z,96474.05
2018-03-16T19:13:30.502Z,96474.73
2018-03-16T19:16:00.008Z,96479.09
2018-03-16T19:18:29.868Z,96478.40
2018-03-16T19:20:58.296Z,96478.80
2018-03-16T19:23:26.684Z,96476.39
2018-03-16T19:25:55.013Z,96477.44
2018-03-16T19:28:23.630Z,96474.64
2018-03-16T19:30:51.981Z,96469.52
2018-03-16T19:33:21.690Z,96471.25
2018-03-16T19:35:50.009Z,96468.04
2018-03-16T19:38:19.169Z,96464.16
2018-03-16T19:40:47.529Z,96467.83
2018-03-16T19:43:15.808Z,96474.06
2018-03-16T19:45:44.273Z,96473.14
2018-03-16T19:48:12.582Z,96471.55
2018-03-16T19:50:41.655Z,96477.67
2018-03-16T19:53:09.939Z,96478.21
2018-03-16T19:55:38.237Z,96470.06
2018-03-16T19:58:06.484Z,96470.91
2018-03-16T20:00:34.764Z,96465.17
2018-03-16T20:03:03.029Z,96461.05
2018-03-16T20:05:33.214Z,96461.50
2018-03-16T20:08:01.478Z,96464.64
2018-03-16T20:10:29.788Z,96456.84
2018-03-16T20:12:58.102Z,96452.92
2018-03-16T20:15:26.445Z,96461.65
2018-03-16T20:17:54.752Z,96463.28
2018-03-16T20:20:23.041Z,96464.16
2018-03-16T20:22:51.332Z,96460.58
2018-03-16T20:25:19.586Z,96462.35
2018-03-16T20:27:48.710Z,96459.47
2018-03-16T20:30:16.975Z,96451.73
2018-03-16T20:32:46.019Z,96449.08
2018-03-16T20:35:14.282Z,96457.36
2018-03-16T20:37:49.189Z,96452.25
2018-03-16T20:40:17.465Z,96458.11
2018-03-16T20:42:45.758Z,96460.30
2018-03-16T20:45:14.057Z,96462.93
2018-03-16T20:47:42.330Z,96461.12
2018-03-16T20:50:10.681Z,96479.08
2018-03-16T20:52:38.885Z,96466.66
2018-03-16T20:55:07.157Z,96467.30
2018-03-16T20:57:36.229Z,96458.05
2018-03-16T21:00:04.486Z,96447.98
2018-03-16T21:02:32.753Z,96448.94
2018-03-16T21:05:01.002Z,96463.41
2018-03-16T21:07:29.313Z,96465.55
2018-03-16T21:09:58.419Z,96465.20
2018-03-16T21:12:27.479Z,96465.10
2018-03-16T21:14:57.131Z,96466.11
2018-03-16T21:17:26.292Z,96454.42
2018-03-16T21:19:54.673Z,96456.66
2018-03-16T21:22:22.961Z,96453.52
2018-03-16T21:24:51.263Z,96445.30
2018-03-16T21:27:19.621Z,96442.03
2018-03-16T21:29:48.653Z,96448.02
2018-03-16T21:32:16.916Z,96447.83
2018-03-16T21:34:46.748Z,96444.94
2018-03-16T21:37:15.040Z,96444.20
2018-03-16T21:39:43.341Z,96442.09
2018-03-16T21:42:11.634Z,96443.21
2018-03-16T21:44:39.880Z,96440.45
2018-03-16T21:47:08.203Z,96436.94
2018-03-16T21:49:36.485Z,96437.20
2018-03-16T21:52:05.529Z,96438.03
2018-03-16T21:54:33.776Z,96440.58
2018-03-16T21:57:03.573Z,96447.77
2018-03-16T21:59:31.831Z,96442.92
2018-03-16T22:02:00.133Z,96448.19
2018-03-16T22:04:28.418Z,96440.66
2018-03-16T22:06:57.544Z,96434.09
2018-03-16T22:09:25.993Z,96438.41
2018-03-16T22:11:55.435Z,96432.95
2018-03-16T22:14:24.608Z,96437.59
2018-03-16T22:16:52.906Z,96438.61
2018-03-16T22:19:21.192Z,96434.72
2018-03-16T22:21:49.478Z,96434.82
2018-03-16T22:24:17.749Z,96428.19
2018-03-16T22:26:46.780Z,96432.25
2018-03-16T22:29:15.064Z,96424.64
2018-03-16T22:31:43.337Z,96432.15
2018-03-16T22:34:12.370Z,96429.45
2018-03-16T22:36:40.660Z,96425.94
2018-03-16T22:39:08.944Z,96415.97
2018-03-16T22:41:37.205Z,96414.88
2018-03-16T22:44:06.253Z,96411.05
2018-03-16T22:46:34.521Z,96409.78
2018-03-16T22:49:02.801Z,96410.35
2018-03-16T22:51:31.851Z,96400.78
2018-03-16T22:54:00.121Z,96398.34
2018-03-16T22:56:28.536Z,96400.33
2018-03-16T22:58:57.012Z,96390.85
2018-03-16T23:01:25.402Z,96385.97
2018-03-16T23:03:53.787Z,96388.74
2018-03-16T23:06:22.046Z,96389.34
2018-03-16T23:08:51.072Z,96392.21
2018-03-16T23:11:20.080Z,96399.27
2018-03-16T23:13:48.348Z,96391.64
2018-03-16T23:16:17.410Z,96389.66
2018-03-16T23:18:45.721Z,96392.25
2018-03-16T23:21:13.976Z,96388.83
2018-03-16T23:23:42.254Z,96398.25
2018-03-16T23:26:11.648Z,96400.58
2018-03-16T23:28:39.934Z,96404.88
2018-03-16T23:31:08.939Z,96401.98
2018-03-16T23:33:37.964Z,96398.13
2018-03-16T23:36:06.229Z,96393.56
2018-03-16T23:38:35.254Z,96387.50
2018-03-16T23:41:03.521Z,96378.75
2018-03-16T23:43:32.564Z,96392.88
2018-03-16T23:46:00.883Z,96384.73
2018-03-16T23:48:29.209Z,96372.21
2018-03-16T23:50:57.564Z,96374.58
2018-03-16T23:53:26.067Z,96368.01
2018-03-16T23:55:55.766Z,96368.81
2018-03-16T23:58:24.336Z,96368.19
